createdAt,value
2022-07-29T00:03:04.500Z,4.47
2022-07-29T00:07:59.109Z,5.75
2022-07-29T00:12:54.822Z,4.20
2022-07-29T00:17:49.396Z,4.18
2022-07-29T00:22:43.190Z,4.00
2022-07-29T00:27:39.700Z,3.78
2022-07-29T00:32:33.786Z,5.07
2022-07-29T00:37:27.640Z,3.35
2022-07-29T00:42:22.894Z,3.80
2022-07-29T00:47:17.164Z,6.82
2022-07-29T00:52:13.169Z,5.85
2022-07-29T00:57:10.293Z,5.82
2022-07-29T01:02:04.917Z,8.45
2022-07-29T01:06:58.893Z,6.05
2022-07-29T01:11:53.229Z,5.45
2022-07-29T01:17:03.629Z,11.55
2022-07-29T01:22:00.844Z,7.75
2022-07-29T01:27:33.166Z,5.35
2022-07-29T01:32:30.420Z,6.63
2022-07-29T01:37:38.956Z,9.70
2022-07-29T01:42:44.915Z,7.05
2022-07-29T01:48:00.384Z,5.22
2022-07-29T01:53:02.220Z,9.90
2022-07-29T01:57:56.401Z,7.20
2022-07-29T02:02:51.340Z,8.18
2022-07-29T02:07:46.444Z,5.90
2022-07-29T02:12:41.260Z,4.75
2022-07-29T02:17:59.642Z,4.20
2022-07-29T02:22:55.149Z,5.80
2022-07-29T02:27:51.182Z,9.80
2022-07-29T02:32:48.623Z,5.00
2022-07-29T02:37:44.272Z,5.70
2022-07-29T02:42:40.589Z,5.43
2022-07-29T02:47:55.286Z,6.00
2022-07-29T02:53:09.429Z,6.13
2022-07-29T02:58:07.603Z,4.47
2022-07-29T03:03:05.877Z,6.40
2022-07-29T03:08:03.459Z,6.35
2022-07-29T03:13:02.879Z,8.85
2022-07-29T03:17:56.705Z,9.07
2022-07-29T03:22:50.077Z,11.02
2022-07-29T03:27:43.833Z,9.68
2022-07-29T03:32:38.805Z,8.25
2022-07-29T03:37:33.086Z,5.38
2022-07-29T03:42:34.069Z,10.45
2022-07-29T03:47:50.106Z,6.35
2022-07-29T03:52:45.230Z,9.95
2022-07-29T03:57:41.175Z,6.68
2022-07-29T04:02:35.282Z,11.55
2022-07-29T04:07:28.851Z,8.32
2022-07-29T04:12:22.617Z,14.88
2022-07-29T04:17:16.235Z,12.23
2022-07-29T04:22:11.383Z,9.80
2022-07-29T04:27:06.004Z,10.32
2022-07-29T04:31:59.092Z,12.60
2022-07-29T04:36:52.152Z,6.88
2022-07-29T04:41:50.379Z,6.93
2022-07-29T04:46:43.740Z,6.88
2022-07-29T04:51:36.470Z,8.07
2022-07-29T04:56:30.557Z,6.90
2022-07-29T05:01:28.604Z,15.55
2022-07-29T05:06:23.110Z,9.20
2022-07-29T05:11:21.315Z,13.60
2022-07-29T05:16:15.881Z,14.63
2022-07-29T05:21:08.920Z,9.57
2022-07-29T05:26:03.759Z,7.22
2022-07-29T05:30:58.216Z,10.05
2022-07-29T05:35:52.030Z,9.75
2022-07-29T05:40:45.974Z,10.57
2022-07-29T05:45:50.025Z,10.15
2022-07-29T05:50:44.484Z,13.63
2022-07-29T05:55:40.976Z,11.13
2022-07-29T06:00:38.996Z,14.35
2022-07-29T06:05:33.495Z,10.93
2022-07-29T06:10:27.381Z,10.13
2022-07-29T06:15:20.132Z,9.93
2022-07-29T06:20:15.353Z,10.52
2022-07-29T06:25:10.817Z,14.80
2022-07-29T06:30:05.406Z,8.02
2022-07-29T06:35:24.494Z,8.25
2022-07-29T06:40:32.156Z,12.88
2022-07-29T06:45:25.995Z,10.15
2022-07-29T06:50:21.300Z,13.43
2022-07-29T06:55:25.128Z,10.13
2022-07-29T07:00:19.521Z,10.88
2022-07-29T07:05:13.812Z,10.52
2022-07-29T07:10:09.144Z,9.50
2022-07-29T07:15:03.093Z,8.48
2022-07-29T07:19:56.974Z,8.90
2022-07-29T07:24:51.005Z,10.05
2022-07-29T07:29:44.164Z,7.35
2022-07-29T07:34:39.664Z,13.10
2022-07-29T07:39:32.951Z,10.55
2022-07-29T07:44:26.650Z,9.15
2022-07-29T07:49:21.073Z,7.65
2022-07-29T07:54:15.425Z,8.02
2022-07-29T07:59:09.593Z,7.00
2022-07-29T08:04:05.329Z,8.18
2022-07-29T08:09:19.530Z,5.72
2022-07-29T08:14:13.001Z,7.28
2022-07-29T08:19:07.829Z,4.88
2022-07-29T08:24:20.092Z,9.80
2022-07-29T08:29:18.356Z,9.40
2022-07-29T08:34:13.497Z,6.32
2022-07-29T08:39:08.084Z,5.78
2022-07-29T08:44:01.497Z,4.70
2022-07-29T08:48:57.081Z,4.82
2022-07-29T08:53:52.495Z,5.97
2022-07-29T08:58:50.673Z,5.85
2022-07-29T09:03:50.520Z,5.95
2022-07-29T09:08:44.723Z,4.75
2022-07-29T09:13:39.734Z,9.55
2022-07-29T09:18:37.940Z,4.57
2022-07-29T09:23:37.269Z,5.72
2022-07-29T09:28:31.760Z,6.63
2022-07-29T09:33:26.739Z,5.55
2022-07-29T09:38:21.495Z,5.30
2022-07-29T09:43:15.828Z,4.43
2022-07-29T09:48:41.942Z,7.63
2022-07-29T09:53:41.269Z,5.82
2022-07-29T09:58:35.732Z,5.18
2022-07-29T10:03:29.120Z,7.72
2022-07-29T10:08:28.480Z,4.80
2022-07-29T10:13:22.309Z,8.43
2022-07-29T10:18:18.995Z,5.03
2022-07-29T10:23:11.959Z,7.22
2022-07-29T10:28:08.086Z,8.82
2022-07-29T10:33:30.453Z,7.18
2022-07-29T10:38:54.054Z,6.25
2022-07-29T10:43:51.120Z,4.10
2022-07-29T10:49:06.262Z,4.68
2022-07-29T10:54:06.673Z,5.72
2022-07-29T10:59:23.606Z,4.35
2022-07-29T11:04:18.229Z,3.08
2022-07-29T11:09:35.115Z,5.33
2022-07-29T11:14:54.007Z,3.00
2022-07-29T11:19:52.050Z,5.75
2022-07-29T11:24:50.249Z,4.65
2022-07-29T11:30:07.642Z,7.35
2022-07-29T11:40:42.675Z,5.63
2022-07-29T11:45:49.529Z,3.60
2022-07-29T11:50:48.313Z,6.18
2022-07-29T12:00:57.110Z,6.18
2022-07-29T12:05:51.955Z,6.35
2022-07-29T12:07:01.567Z,3.03
2022-07-29T12:10:45.812Z,3.85
2022-07-29T12:15:47.089Z,9.48
2022-07-29T12:20:40.852Z,5.65
2022-07-29T12:25:37.387Z,5.35
2022-07-29T12:30:58.324Z,4.35
2022-07-29T12:36:17.673Z,4.63
2022-07-29T12:41:12.687Z,3.72
2022-07-29T12:46:16.741Z,9.00
2022-07-29T12:51:13.529Z,5.93
2022-07-29T12:56:20.962Z,3.85
2022-07-29T13:01:22.651Z,4.38
2022-07-29T13:06:35.032Z,6.03
2022-07-29T13:11:36.851Z,4.72
2022-07-29T13:16:30.847Z,8.07
2022-07-29T13:21:24.970Z,6.15
2022-07-29T13:26:20.690Z,7.07
2022-07-29T13:31:14.284Z,4.55
2022-07-29T13:36:08.243Z,5.15
2022-07-29T13:41:03.734Z,2.92
2022-07-29T13:45:58.161Z,4.32
2022-07-29T13:50:51.976Z,5.40
2022-07-29T13:55:44.869Z,4.75
2022-07-29T14:00:38.199Z,4.70
2022-07-29T14:05:32.214Z,4.97
2022-07-29T14:10:25.784Z,6.13
2022-07-29T14:15:19.695Z,4.63
2022-07-29T14:20:13.405Z,4.10
2022-07-29T14:25:14.578Z,4.15
2022-07-29T14:30:13.173Z,5.00
2022-07-29T14:35:09.364Z,6.72
2022-07-29T14:40:04.716Z,14.77
2022-07-29T14:44:58.772Z,18.58
2022-07-29T14:49:53.271Z,17.08
2022-07-29T14:54:47.603Z,17.30
2022-07-29T14:59:41.627Z,18.55
2022-07-29T15:04:35.065Z,14.82
2022-07-29T15:09:28.844Z,15.07
2022-07-29T15:14:22.229Z,14.70
2022-07-29T15:19:16.310Z,18.23
2022-07-29T15:24:09.542Z,18.30
2022-07-29T15:29:03.981Z,12.57
2022-07-29T15:34:01.270Z,11.27
2022-07-29T15:38:59.048Z,15.68
2022-07-29T15:43:52.128Z,12.98
2022-07-29T15:48:46.422Z,11.88
2022-07-29T15:53:39.705Z,7.82
2022-07-29T15:58:33.691Z,3.83
2022-07-29T16:03:28.518Z,3.30
2022-07-29T16:08:22.568Z,6.65
2022-07-29T16:13:17.806Z,6.95
2022-07-29T16:18:14.941Z,5.95
2022-07-29T16:23:12.887Z,7.10
2022-07-29T16:28:07.225Z,4.50
2022-07-29T16:33:01.798Z,5.15
2022-07-29T16:37:58.805Z,6.75
2022-07-29T16:42:53.172Z,4.88
2022-07-29T16:47:46.581Z,6.60
2022-07-29T16:52:40.988Z,4.60
2022-07-29T16:57:34.548Z,8.77
2022-07-29T17:02:31.536Z,6.25
2022-07-29T17:07:25.594Z,6.03
2022-07-29T17:12:19.123Z,7.25
2022-07-29T17:17:15.707Z,5.32
2022-07-29T17:22:19.239Z,4.93
2022-07-29T17:27:13.528Z,5.70
2022-07-29T17:32:09.577Z,5.38
2022-07-29T17:37:04.904Z,4.30
2022-07-29T17:41:59.937Z,7.22
2022-07-29T17:46:53.934Z,11.50
2022-07-29T17:51:47.903Z,4.80
2022-07-29T17:56:41.946Z,8.65
2022-07-29T18:01:34.830Z,5.70
2022-07-29T18:06:28.351Z,8.73
2022-07-29T18:11:26.304Z,8.55
2022-07-29T18:16:19.538Z,9.02
2022-07-29T18:21:17.231Z,6.07
2022-07-29T18:26:30.966Z,7.40
2022-07-29T18:31:25.224Z,6.47
2022-07-29T18:36:19.043Z,6.03
2022-07-29T18:41:13.032Z,7.35
2022-07-29T18:46:07.482Z,6.13
2022-07-29T18:51:09.273Z,6.20
2022-07-29T18:56:04.500Z,8.50
2022-07-29T19:00:58.549Z,6.55
2022-07-29T19:05:53.749Z,10.60
2022-07-29T19:10:47.828Z,10.02
2022-07-29T19:15:45.258Z,8.95
2022-07-29T19:20:40.408Z,6.75
2022-07-29T19:25:35.873Z,11.63
2022-07-29T19:30:31.447Z,5.82
2022-07-29T19:35:26.733Z,5.15
2022-07-29T19:40:23.229Z,6.97
2022-07-29T19:45:23.001Z,7.75
2022-07-29T19:50:21.668Z,8.02
2022-07-29T19:55:16.436Z,10.02
2022-07-29T20:00:13.883Z,10.88
2022-07-29T20:05:12.322Z,8.73
2022-07-29T20:10:08.506Z,11.52
2022-07-29T20:15:02.701Z,5.30
2022-07-29T20:19:57.879Z,7.30
2022-07-29T20:24:55.343Z,6.30
2022-07-29T20:29:49.397Z,5.90
2022-07-29T20:34:44.084Z,8.75
2022-07-29T20:39:38.745Z,8.27
2022-07-29T20:44:32.308Z,8.73
2022-07-29T20:49:26.327Z,9.55
2022-07-29T20:54:20.186Z,11.15
2022-07-29T20:59:14.458Z,10.23
2022-07-29T21:04:08.279Z,8.40
2022-07-29T21:09:02.566Z,9.20
2022-07-29T21:13:59.284Z,11.52
2022-07-29T21:18:55.640Z,10.05
2022-07-29T21:23:51.183Z,6.20
2022-07-29T21:28:46.660Z,8.32
2022-07-29T21:33:48.175Z,9.35
2022-07-29T21:38:42.258Z,6.47
2022-07-29T21:43:37.200Z,9.35
2022-07-29T21:48:39.106Z,9.30
2022-07-29T21:53:38.854Z,6.25
2022-07-29T21:58:35.568Z,6.90
2022-07-29T22:03:31.948Z,5.38
2022-07-29T22:08:27.086Z,5.95
2022-07-29T22:13:24.478Z,7.22
2022-07-29T22:18:19.511Z,7.75
2022-07-29T22:23:16.767Z,5.45
2022-07-29T22:28:11.915Z,3.92
2022-07-29T22:33:06.744Z,4.80
2022-07-29T22:38:00.952Z,6.07
2022-07-29T22:42:55.093Z,4.32
2022-07-29T22:47:49.489Z,4.82
2022-07-29T22:52:44.500Z,5.32
2022-07-29T22:57:38.332Z,6.97
2022-07-29T23:02:32.477Z,4.70
2022-07-29T23:07:25.395Z,6.13
2022-07-29T23:12:19.226Z,5.97
2022-07-29T23:17:12.886Z,4.70
2022-07-29T23:22:06.433Z,4.47
2022-07-29T23:27:00.667Z,4.47
2022-07-29T23:31:58.941Z,5.55
2022-07-29T23:36:53.053Z,6.97
2022-07-29T23:41:47.158Z,7.20
2022-07-29T23:46:41.338Z,6.72
2022-07-29T23:51:34.969Z,6.38
2022-07-29T23:56:28.949Z,6.70
